Pagina principale
METAR-TAF:

METAR-TAF

Aeroporti :

Aeroporto di Vladikavkaz

Vladikavkaz, Russia

latitudine: 43-12-18N, longitudine: 044-36-24E, altezza: 510 m

Osservazione

Il bollettino è stato emesso 1 ora e 34 minuti fa, alle 17:30 UTC
Vento 6 kt da est/sud-est
Temperature 21°C
Umidità 73%
Pressione 1011 hPa
Visibilità 10 km o più
Nubi sparse ad un'altezza di 4900 ft

METAR: URMO 191730Z 12003MPS 9999 SCT049 21/16 Q1011 R09/010070 NOSIG RMK QFE715/0953

Ora: 22:04 (19:04 UTC)

Previsione

Il bollettino è stato emesso 5 ore e 4 minuti fa, alle 14:00 UTC
Previsione valida dal 19 alle 15 UTC al 19 alle 24 UTC
Vento 6 kt da est/sud-est con raffiche fino a 16 kt
Visibilità 10 km o più
Nubi sparse ad un'altezza di 3000 ft

TAF: URMO 191400Z 1915/1924 12003G08MPS 9999 SCT030

Osservazioni e previsioni meteorologiche di più di 4000 aeroporti (messaggi METAR e TAF).

Le stazioni disponibili sono rappresentate dai dischi gialli e rossi sulla carta.

Puntare il mouse per vedere il nome della stazione.

Clicca sopra per visualizzare le osservazioni e previsioni meteorologiche.

Per cambiare la mappa : fare clic sui pulsanti verdi con una croce nera per ingrandire, il pulsante verde con un trattino per diminuire, o sulla freccia verde per le mappe adiacenti.


METAR-TAF: